Overview Statistics Trail Chart Weather Telemetry Raw packets
 

This is the latest recevied weather packets stored in our database for station/object K7MT-WX. If no packets are shown the sender has not sent any weather packets the latest 10 day(s).

<< 13 14 15 16 17 18 19 >>
Time Temp. Humidity Pressure Rain* Wind** Luminosity Snow
1788294905 28.33° C 30% 1010.1 hPa 0 mm - - -
1788294005 27.78° C 29% 1010.4 hPa 0 mm - - -
1788293105 28.33° C 34% 1010.6 hPa 0 mm - - -
1788292205 27.22° C 32% 1011 hPa 0 mm - - -
1788291305 26.67° C 35% 1011.3 hPa 0 mm - - -
1788290405 25.56° C 34% 1011.6 hPa 0 mm - - -
1788289506 25° C 36% 1011.9 hPa 0 mm - - -
1788288605 23.33° C 44% 1012.3 hPa 0 mm - - -
1788287705 22.22° C 45% 1012.6 hPa 0 mm - - -
1788286805 21.67° C 44% 1012.8 hPa 0 mm - - -
1788285905 18.89° C 49% 1013.1 hPa 0 mm - - -
1788285005 18.33° C 48% 1013.4 hPa 0 mm - - -
1788284105 17.78° C 51% 1013.5 hPa 0 mm - - -
1788283205 17.78° C 49% 1013.7 hPa 0 mm - - -
1788282305 19.44° C 45% 1013.8 hPa 0 mm - - -
1788281405 17.78° C 45% 1013.9 hPa 0 mm - - -
1788280505 16.67° C 48% 1013.9 hPa 0 mm - - -
1788279605 14.44° C 58% 1014 hPa 0 mm - - -
1788278705 13.89° C 60% 1014.2 hPa 0 mm - - -
1788277805 13.33° C 63% 1014.2 hPa 0 mm - - -
1788276905 12.78° C 69% 1014.3 hPa 0 mm - - -
1788276024 13.89° C 64% 1014.4 hPa 0 mm - - -
1788275126 13.33° C 60% 1014.3 hPa 0 mm - - -
1788274205 12.78° C 63% 1014.3 hPa 0 mm - - -
1788273326 11.67° C 66% 1014.2 hPa 0 mm - - -

* Rain latest hour (hover to see other rain measurements)
** Current wind speed in m/s (hover to see current wind gust speed)